EDHK/KEL METAR and TAF weather

Enter ICAO airport designator
Station Type Date Time Source
EDHK METAR 2022/08/12 13:50 UTC NOAA

EDHK 121350Z 06011KT CAVOK 26/14 Q1021


Station Type Date Time Source
EDHK Decoded METAR 2022/08/12 13:50 UTC NOAA

Kiel / Holtenau Civilian, Germany (EDHK) 54-23N 010-10E
Aug 12, 2022 - 09:50 AM EDT / 2022.08.12 1350 UTC
Wind: from the ENE (060 degrees) at 13 MPH (11 KT):0
Visibility: greater than 7 mile(s):0
Temperature: 78 F (26 C)
Dew Point: 57 F (14 C)
Relative Humidity: 47%
Pressure (altimeter): 30.15 in. Hg (1021 hPa)
ob: EDHK 121350Z 06011KT CAVOK 26/14 Q1021
cycle: 14

Station Type Date Time Source
EDHK TAF 2013/08/11 06:39 UTC NOAA

TAF EDHK 110633Z 1106/1118 24005KT 9999 SCT030
BECMG 1106/1109 25010KT
TEMPO 1106/1118 27015G25KT 4500 SHRA BKN012CB

Example: see airport list